KEKO/EKO METAR and TAF weather

Enter ICAO airport designator
Station Type Date Time Source
KEKO METAR 2018/04/21 20:56 UTC NOAA

KEKO 212056Z AUTO 25009G15KT 10SM CLR 21/00 A3020 RMK AO2 SLP204 T02060000 56014


Station Type Date Time Source
KEKO Decoded METAR 2018/04/21 20:56 UTC NOAA

ELKO REGIONAL AIRPORT, NV, United States (KEKO) 40-50N 115-47W 1547M
Apr 21, 2018 - 04:56 PM EDT / 2018.04.21 2056 UTC
Wind: from the WSW (250 degrees) at 10 MPH (9 KT) gusting to 17 MPH (15 KT):0
Visibility: 10 mile(s):0
Sky conditions: clear
Temperature: 69.1 F (20.6 C)
Dew Point: 32.0 F (0.0 C)
Relative Humidity: 25%
Pressure (altimeter): 30.2 in. Hg (1022 hPa)
Pressure tendency: 0.04 inches (1.4 hPa) lower than three hours ago
ob: KEKO 212056Z AUTO 25009G15KT 10SM CLR 21/00 A3020 RMK AO2 SLP204 T02060000 56014
cycle: 21

Station Type Date Time Source
KEKO TAF 2018/04/21 18:22 UTC NOAA

TAF KEKO 211720Z 2118/2218 27008KT P6SM SKC


Example: see airport list